sensor_id;sensor_type;location;lat;lon;timestamp;pressure;altitude;pressure_sealevel;temperature;humidity
14273;BME280;7220;49.450;11.052;2023-03-07T00:02:34;96976.56;;;2.34;82.06
14273;BME280;7220;49.450;11.052;2023-03-07T00:06:34;96972.84;;;2.40;82.68
14273;BME280;7220;49.450;11.052;2023-03-07T00:10:35;96962.34;;;2.40;82.36
14273;BME280;7220;49.450;11.052;2023-03-07T00:14:35;96968.31;;;2.43;82.38
14273;BME280;7220;49.450;11.052;2023-03-07T00:18:36;96952.94;;;2.56;82.02
14273;BME280;7220;49.450;11.052;2023-03-07T00:22:36;96956.50;;;2.33;82.94
14273;BME280;7220;49.450;11.052;2023-03-07T00:26:37;96961.56;;;2.58;82.69
14273;BME280;7220;49.450;11.052;2023-03-07T00:30:38;96960.25;;;2.48;82.46
14273;BME280;7220;49.450;11.052;2023-03-07T00:34:39;96948.72;;;2.52;81.44
14273;BME280;7220;49.450;11.052;2023-03-07T00:38:39;96950.38;;;2.32;82.00
14273;BME280;7220;49.450;11.052;2023-03-07T00:42:41;96938.06;;;2.34;81.61
14273;BME280;7220;49.450;11.052;2023-03-07T00:46:41;96940.44;;;2.41;81.65
14273;BME280;7220;49.450;11.052;2023-03-07T00:50:41;96935.03;;;2.66;80.49
14273;BME280;7220;49.450;11.052;2023-03-07T00:54:42;96934.28;;;2.42;81.33
14273;BME280;7220;49.450;11.052;2023-03-07T00:58:43;96925.75;;;2.36;81.02
14273;BME280;7220;49.450;11.052;2023-03-07T01:02:43;96922.56;;;2.92;78.40
14273;BME280;7220;49.450;11.052;2023-03-07T01:06:44;96916.84;;;2.82;77.74
14273;BME280;7220;49.450;11.052;2023-03-07T01:10:44;96894.63;;;2.91;77.60
14273;BME280;7220;49.450;11.052;2023-03-07T01:14:49;96898.97;;;2.92;77.49
14273;BME280;7220;49.450;11.052;2023-03-07T01:18:57;96886.94;;;2.86;77.24
14273;BME280;7220;49.450;11.052;2023-03-07T01:22:58;96879.78;;;2.69;77.70
14273;BME280;7220;49.450;11.052;2023-03-07T01:26:58;96886.03;;;2.87;76.04
14273;BME280;7220;49.450;11.052;2023-03-07T01:30:59;96882.63;;;2.85;76.50
14273;BME280;7220;49.450;11.052;2023-03-07T01:34:59;96882.31;;;2.51;77.90
14273;BME280;7220;49.450;11.052;2023-03-07T01:39:06;96863.47;;;2.83;77.54
14273;BME280;7220;49.450;11.052;2023-03-07T01:43:24;96860.69;;;2.67;77.67
14273;BME280;7220;49.450;11.052;2023-03-07T01:47:25;96867.91;;;2.81;77.49
14273;BME280;7220;49.450;11.052;2023-03-07T01:51:27;96848.38;;;2.88;76.66
14273;BME280;7220;49.450;11.052;2023-03-07T01:55:33;96852.97;;;2.83;76.40
14273;BME280;7220;49.450;11.052;2023-03-07T01:59:38;96837.31;;;2.61;76.43
14273;BME280;7220;49.450;11.052;2023-03-07T02:03:50;96833.78;;;3.21;75.17
14273;BME280;7220;49.450;11.052;2023-03-07T02:07:52;96846.38;;;2.74;75.84
14273;BME280;7220;49.450;11.052;2023-03-07T02:11:55;96831.09;;;2.63;77.49
14273;BME280;7220;49.450;11.052;2023-03-07T02:15:58;96835.56;;;2.61;76.57
14273;BME280;7220;49.450;11.052;2023-03-07T02:25:01;96825.94;;;2.81;75.77
14273;BME280;7220;49.450;11.052;2023-03-07T02:29:02;96836.16;;;2.68;76.04
14273;BME280;7220;49.450;11.052;2023-03-07T02:33:02;96838.53;;;2.73;76.21
14273;BME280;7220;49.450;11.052;2023-03-07T02:37:15;96822.31;;;2.64;75.93
14273;BME280;7220;49.450;11.052;2023-03-07T02:41:20;96829.56;;;2.97;74.36
14273;BME280;7220;49.450;11.052;2023-03-07T02:45:23;96820.28;;;2.90;74.89
14273;BME280;7220;49.450;11.052;2023-03-07T02:49:23;96826.66;;;2.84;74.81
14273;BME280;7220;49.450;11.052;2023-03-07T02:53:23;96827.22;;;2.72;75.79
14273;BME280;7220;49.450;11.052;2023-03-07T02:57:24;96840.34;;;2.31;77.40
14273;BME280;7220;49.450;11.052;2023-03-07T03:01:24;96841.41;;;2.27;78.19
14273;BME280;7220;49.450;11.052;2023-03-07T03:05:25;96833.06;;;2.17;79.17
14273;BME280;7220;49.450;11.052;2023-03-07T03:09:25;96829.84;;;2.10;80.65
14273;BME280;7220;49.450;11.052;2023-03-07T03:13:26;96829.72;;;2.13;81.43
14273;BME280;7220;49.450;11.052;2023-03-07T03:17:26;96821.94;;;1.89;84.66
14273;BME280;7220;49.450;11.052;2023-03-07T03:21:26;96824.22;;;1.77;88.49
14273;BME280;7220;49.450;11.052;2023-03-07T03:25:27;96821.38;;;1.83;89.05
14273;BME280;7220;49.450;11.052;2023-03-07T03:29:27;96811.63;;;1.64;91.64
14273;BME280;7220;49.450;11.052;2023-03-07T03:33:27;96826.63;;;2.03;90.10
14273;BME280;7220;49.450;11.052;2023-03-07T03:37:31;96816.75;;;1.67;93.00
14273;BME280;7220;49.450;11.052;2023-03-07T03:41:32;96803.69;;;1.66;92.84
14273;BME280;7220;49.450;11.052;2023-03-07T03:45:32;96810.78;;;1.64;93.98
14273;BME280;7220;49.450;11.052;2023-03-07T03:49:32;96796.69;;;2.09;91.37
14273;BME280;7220;49.450;11.052;2023-03-07T03:53:34;96797.47;;;1.91;90.73
14273;BME280;7220;49.450;11.052;2023-03-07T03:57:35;96791.91;;;1.98;90.85
14273;BME280;7220;49.450;11.052;2023-03-07T04:01:35;96786.97;;;1.91;91.44
14273;BME280;7220;49.450;11.052;2023-03-07T04:05:36;96785.16;;;2.13;90.01
14273;BME280;7220;49.450;11.052;2023-03-07T04:09:36;96779.34;;;2.07;89.33
14273;BME280;7220;49.450;11.052;2023-03-07T04:13:36;96770.38;;;2.12;89.73
14273;BME280;7220;49.450;11.052;2023-03-07T04:17:37;96762.28;;;1.96;89.41
14273;BME280;7220;49.450;11.052;2023-03-07T04:21:38;96764.84;;;1.98;89.02
14273;BME280;7220;49.450;11.052;2023-03-07T04:25:39;96769.72;;;2.28;86.76
14273;BME280;7220;49.450;11.052;2023-03-07T04:29:39;96758.94;;;2.34;85.99
14273;BME280;7220;49.450;11.052;2023-03-07T04:33:40;96762.69;;;2.28;85.85
14273;BME280;7220;49.450;11.052;2023-03-07T04:37:40;96764.50;;;2.26;85.38
14273;BME280;7220;49.450;11.052;2023-03-07T04:41:41;96760.53;;;2.57;83.64
14273;BME280;7220;49.450;11.052;2023-03-07T04:45:41;96756.53;;;2.09;84.26
14273;BME280;7220;49.450;11.052;2023-03-07T04:49:41;96756.84;;;2.42;82.30
14273;BME280;7220;49.450;11.052;2023-03-07T04:53:42;96754.16;;;2.44;82.10
14273;BME280;7220;49.450;11.052;2023-03-07T04:57:42;96753.50;;;1.77;85.58
14273;BME280;7220;49.450;11.052;2023-03-07T05:01:43;96769.38;;;2.15;84.60
14273;BME280;7220;49.450;11.052;2023-03-07T05:05:43;96762.56;;;1.90;86.31
14273;BME280;7220;49.450;11.052;2023-03-07T05:09:43;96758.75;;;2.18;85.08
14273;BME280;7220;49.450;11.052;2023-03-07T05:13:44;96745.72;;;2.16;84.45
14273;BME280;7220;49.450;11.052;2023-03-07T05:17:44;96760.44;;;1.78;86.66
14273;BME280;7220;49.450;11.052;2023-03-07T05:21:44;96750.56;;;1.84;85.68
14273;BME280;7220;49.450;11.052;2023-03-07T05:25:46;96740.34;;;2.19;85.72
14273;BME280;7220;49.450;11.052;2023-03-07T05:29:47;96734.78;;;2.07;87.75
14273;BME280;7220;49.450;11.052;2023-03-07T05:33:47;96737.59;;;2.23;87.48
14273;BME280;7220;49.450;11.052;2023-03-07T05:37:47;96740.53;;;1.73;89.51
14273;BME280;7220;49.450;11.052;2023-03-07T05:41:47;96732.94;;;1.67;91.17
14273;BME280;7220;49.450;11.052;2023-03-07T05:45:48;96725.84;;;1.49;92.55
14273;BME280;7220;49.450;11.052;2023-03-07T05:49:48;96744.72;;;1.57;91.55
14273;BME280;7220;49.450;11.052;2023-03-07T05:53:49;96720.69;;;1.68;90.64
14273;BME280;7220;49.450;11.052;2023-03-07T05:57:49;96730.03;;;1.53;91.76
14273;BME280;7220;49.450;11.052;2023-03-07T06:01:50;96717.34;;;1.64;90.96
14273;BME280;7220;49.450;11.052;2023-03-07T06:05:50;96713.06;;;1.84;89.39
14273;BME280;7220;49.450;11.052;2023-03-07T06:09:50;96720.25;;;1.99;88.88
14273;BME280;7220;49.450;11.052;2023-03-07T06:13:51;96725.59;;;2.17;87.58
14273;BME280;7220;49.450;11.052;2023-03-07T06:17:51;96717.50;;;2.02;86.98
14273;BME280;7220;49.450;11.052;2023-03-07T06:21:51;96737.66;;;2.21;86.99
14273;BME280;7220;49.450;11.052;2023-03-07T06:25:52;96733.28;;;2.41;85.56
14273;BME280;7220;49.450;11.052;2023-03-07T06:29:53;96734.88;;;2.45;85.29
14273;BME280;7220;49.450;11.052;2023-03-07T06:33:53;96733.97;;;2.46;85.52
14273;BME280;7220;49.450;11.052;2023-03-07T06:37:53;96733.59;;;2.53;85.29
14273;BME280;7220;49.450;11.052;2023-03-07T06:41:54;96739.72;;;2.54;84.66
14273;BME280;7220;49.450;11.052;2023-03-07T06:45:54;96731.47;;;2.43;85.66
14273;BME280;7220;49.450;11.052;2023-03-07T06:49:55;96738.78;;;2.55;85.51
14273;BME280;7220;49.450;11.052;2023-03-07T06:53:55;96721.00;;;2.62;84.61
14273;BME280;7220;49.450;11.052;2023-03-07T06:57:55;96740.44;;;2.58;83.30
14273;BME280;7220;49.450;11.052;2023-03-07T07:01:56;96726.03;;;2.66;82.49
14273;BME280;7220;49.450;11.052;2023-03-07T07:05:56;96728.38;;;3.11;80.99
14273;BME280;7220;49.450;11.052;2023-03-07T07:09:56;96719.84;;;2.48;83.25
14273;BME280;7220;49.450;11.052;2023-03-07T07:13:57;96718.44;;;2.60;82.25
14273;BME280;7220;49.450;11.052;2023-03-07T07:17:57;96717.13;;;2.71;81.94
14273;BME280;7220;49.450;11.052;2023-03-07T07:21:57;96724.59;;;2.97;81.45
14273;BME280;7220;49.450;11.052;2023-03-07T07:25:58;96718.38;;;3.19;79.54
14273;BME280;7220;49.450;11.052;2023-03-07T07:29:59;96710.31;;;3.22;80.01
14273;BME280;7220;49.450;11.052;2023-03-07T07:33:59;96729.03;;;3.34;78.39
14273;BME280;7220;49.450;11.052;2023-03-07T07:38:00;96725.94;;;3.25;78.87
14273;BME280;7220;49.450;11.052;2023-03-07T07:42:00;96730.94;;;3.49;76.68
14273;BME280;7220;49.450;11.052;2023-03-07T07:46:04;96721.84;;;3.74;76.19
14273;BME280;7220;49.450;11.052;2023-03-07T07:50:04;96730.47;;;3.22;78.71
14273;BME280;7220;49.450;11.052;2023-03-07T07:54:05;96725.50;;;3.35;77.84
14273;BME280;7220;49.450;11.052;2023-03-07T07:58:06;96721.94;;;3.36;78.31
14273;BME280;7220;49.450;11.052;2023-03-07T08:02:11;96733.56;;;3.67;77.22
14273;BME280;7220;49.450;11.052;2023-03-07T08:06:16;96723.38;;;3.78;76.71
14273;BME280;7220;49.450;11.052;2023-03-07T08:10:17;96720.66;;;4.15;74.70
14273;BME280;7220;49.450;11.052;2023-03-07T08:14:18;96726.91;;;3.94;74.61
14273;BME280;7220;49.450;11.052;2023-03-07T08:18:19;96708.66;;;4.09;73.72
14273;BME280;7220;49.450;11.052;2023-03-07T08:22:19;96714.25;;;4.03;74.91
14273;BME280;7220;49.450;11.052;2023-03-07T08:26:20;96718.72;;;4.01;74.33
14273;BME280;7220;49.450;11.052;2023-03-07T08:30:26;96718.72;;;4.01;73.58
14273;BME280;7220;49.450;11.052;2023-03-07T08:34:27;96699.25;;;4.38;72.84
14273;BME280;7220;49.450;11.052;2023-03-07T08:38:27;96696.22;;;4.13;72.94
14273;BME280;7220;49.450;11.052;2023-03-07T08:42:27;96707.22;;;4.03;72.31
14273;BME280;7220;49.450;11.052;2023-03-07T08:46:28;96714.69;;;4.11;71.95
14273;BME280;7220;49.450;11.052;2023-03-07T08:50:28;96720.13;;;4.08;72.06
14273;BME280;7220;49.450;11.052;2023-03-07T08:54:28;96698.00;;;4.12;72.35
14273;BME280;7220;49.450;11.052;2023-03-07T08:58:30;96704.59;;;4.03;72.31
14273;BME280;7220;49.450;11.052;2023-03-07T09:02:30;96688.84;;;4.53;70.17
14273;BME280;7220;49.450;11.052;2023-03-07T09:06:30;96694.63;;;4.44;69.50
14273;BME280;7220;49.450;11.052;2023-03-07T09:10:32;96689.72;;;4.53;69.38
14273;BME280;7220;49.450;11.052;2023-03-07T09:14:32;96677.38;;;4.54;69.81
14273;BME280;7220;49.450;11.052;2023-03-07T09:18:33;96682.50;;;4.73;68.71
14273;BME280;7220;49.450;11.052;2023-03-07T09:22:33;96684.59;;;4.50;68.94
14273;BME280;7220;49.450;11.052;2023-03-07T09:26:34;96681.31;;;4.63;68.71
14273;BME280;7220;49.450;11.052;2023-03-07T09:30:36;96672.59;;;4.78;68.24
14273;BME280;7220;49.450;11.052;2023-03-07T09:34:36;96677.84;;;4.78;66.77
14273;BME280;7220;49.450;11.052;2023-03-07T09:38:38;96652.38;;;4.95;66.81
14273;BME280;7220;49.450;11.052;2023-03-07T09:42:56;96666.81;;;4.87;66.67
14273;BME280;7220;49.450;11.052;2023-03-07T09:51:36;96656.09;;;4.90;65.65
14273;BME280;7220;49.450;11.052;2023-03-07T09:55:37;96655.44;;;5.03;65.59
14273;BME280;7220;49.450;11.052;2023-03-07T09:59:48;96644.47;;;4.79;66.35
14273;BME280;7220;49.450;11.052;2023-03-07T10:03:58;96638.59;;;4.89;66.04
14273;BME280;7220;49.450;11.052;2023-03-07T10:08:00;96638.19;;;5.44;64.31
14273;BME280;7220;49.450;11.052;2023-03-07T10:28:43;96609.00;;;5.77;60.77
14273;BME280;7220;49.450;11.052;2023-03-07T10:32:54;96605.72;;;5.88;60.56
14273;BME280;7220;49.450;11.052;2023-03-07T10:36:59;96604.09;;;5.71;60.04
14273;BME280;7220;49.450;11.052;2023-03-07T10:41:10;96599.03;;;5.97;59.06
14273;BME280;7220;49.450;11.052;2023-03-07T10:45:13;96588.88;;;6.34;57.96
14273;BME280;7220;49.450;11.052;2023-03-07T10:49:23;96592.06;;;6.54;57.31
14273;BME280;7220;49.450;11.052;2023-03-07T10:53:28;96584.72;;;6.44;56.25
14273;BME280;7220;49.450;11.052;2023-03-07T10:57:30;96586.41;;;6.60;56.05
14273;BME280;7220;49.450;11.052;2023-03-07T11:01:32;96581.81;;;6.76;54.93
14273;BME280;7220;49.450;11.052;2023-03-07T11:05:33;96574.97;;;7.01;53.84
14273;BME280;7220;49.450;11.052;2023-03-07T11:09:45;96566.94;;;7.03;52.36
14273;BME280;7220;49.450;11.052;2023-03-07T11:14:04;96576.16;;;6.83;53.34
14273;BME280;7220;49.450;11.052;2023-03-07T11:18:24;96566.16;;;6.88;51.72
14273;BME280;7220;49.450;11.052;2023-03-07T11:22:30;96552.53;;;6.94;51.59
14273;BME280;7220;49.450;11.052;2023-03-07T11:26:39;96536.16;;;6.89;51.69
14273;BME280;7220;49.450;11.052;2023-03-07T11:30:45;96530.47;;;6.95;51.41
14273;BME280;7220;49.450;11.052;2023-03-07T11:35:06;96532.81;;;7.00;51.95
14273;BME280;7220;49.450;11.052;2023-03-07T11:39:27;96531.88;;;7.14;51.96
14273;BME280;7220;49.450;11.052;2023-03-07T11:43:41;96520.31;;;6.89;50.47
14273;BME280;7220;49.450;11.052;2023-03-07T11:56:21;96509.38;;;6.53;51.18
14273;BME280;7220;49.450;11.052;2023-03-07T12:09:13;96504.16;;;6.93;50.93
14273;BME280;7220;49.450;11.052;2023-03-07T12:13:24;96487.84;;;6.46;51.21
14273;BME280;7220;49.450;11.052;2023-03-07T12:22:07;96497.94;;;6.40;49.94
14273;BME280;7220;49.450;11.052;2023-03-07T12:26:23;96502.09;;;6.29;50.92
14273;BME280;7220;49.450;11.052;2023-03-07T12:30:38;96503.97;;;6.00;51.32
14273;BME280;7220;49.450;11.052;2023-03-07T12:34:45;96510.81;;;5.88;52.50
14273;BME280;7220;49.450;11.052;2023-03-07T12:38:51;96511.19;;;5.82;52.43
14273;BME280;7220;49.450;11.052;2023-03-07T12:43:18;96509.22;;;6.14;52.65
14273;BME280;7220;49.450;11.052;2023-03-07T12:47:35;96502.78;;;6.60;51.38
14273;BME280;7220;49.450;11.052;2023-03-07T12:51:46;96491.19;;;6.21;50.30
14273;BME280;7220;49.450;11.052;2023-03-07T13:00:39;96510.34;;;5.52;50.54
14273;BME280;7220;49.450;11.052;2023-03-07T13:04:41;96500.75;;;5.51;50.72
14273;BME280;7220;49.450;11.052;2023-03-07T13:08:48;96499.22;;;5.62;50.98
14273;BME280;7220;49.450;11.052;2023-03-07T13:12:50;96509.47;;;5.52;50.73
14273;BME280;7220;49.450;11.052;2023-03-07T13:16:51;96507.78;;;5.51;50.99
14273;BME280;7220;49.450;11.052;2023-03-07T13:21:29;96504.47;;;5.33;51.26
14273;BME280;7220;49.450;11.052;2023-03-07T13:25:42;96497.13;;;5.38;51.26
14273;BME280;7220;49.450;11.052;2023-03-07T13:34:45;96486.63;;;5.52;50.71
14273;BME280;7220;49.450;11.052;2023-03-07T13:38:47;96474.28;;;5.53;50.86
14273;BME280;7220;49.450;11.052;2023-03-07T13:42:47;96481.16;;;5.56;49.29
14273;BME280;7220;49.450;11.052;2023-03-07T13:46:49;96478.44;;;5.72;48.22
